Time;durP1;ratioP1;P1;durP2;ratioP2;P2;SDS_P1;SDS_P2;PMS_P1;PMS_P2;Temp;Humidity;BMP_temperature;BMP_pressure;BME280_temperature;BME280_humidity;BME280_pressure;Samples;Min_cycle;Max_cycle;Signal;HPM_P1;HPM_P2
2022/12/02 00:00:47;;;;;;;44.97;20.45;;;1.90;99.90;;;;;;5035140;28;20206;-58
2022/12/02 00:03:20;;;;;;;51.10;21.75;;;1.90;99.90;;;;;;5033970;28;20233;-59
2022/12/02 00:05:49;;;;;;;48.00;19.60;;;1.90;99.90;;;;;;5035999;28;20183;-59
2022/12/02 00:08:20;;;;;;;53.15;22.65;;;1.90;99.90;;;;;;5034383;28;20205;-58
2022/12/02 00:10:47;;;;;;;53.20;23.13;;;1.80;99.90;;;;;;5047023;28;20182;-58
2022/12/02 00:13:21;;;;;;;52.60;23.75;;;1.80;99.90;;;;;;5039733;28;20241;-58
2022/12/02 00:15:50;;;;;;;55.63;23.83;;;1.80;99.90;;;;;;5038013;28;20206;-58
2022/12/02 00:18:19;;;;;;;62.17;24.55;;;1.80;99.90;;;;;;5035830;28;20206;-58
2022/12/02 00:20:46;;;;;;;66.38;25.65;;;1.70;99.90;;;;;;5034402;28;20206;-57
2022/12/02 00:23:13;;;;;;;66.28;24.27;;;1.70;99.90;;;;;;5035738;28;20227;-58
2022/12/02 00:25:41;;;;;;;61.97;23.77;;;1.70;99.90;;;;;;5035707;28;20202;-58
2022/12/02 00:28:07;;;;;;;66.10;26.02;;;1.70;99.90;;;;;;5038018;28;20689;-58
2022/12/02 00:30:34;;;;;;;60.03;24.73;;;1.70;99.90;;;;;;5037985;28;20206;-57
2022/12/02 00:33:02;;;;;;;63.42;24.98;;;1.70;99.90;;;;;;5038073;28;20202;-59
2022/12/02 00:35:30;;;;;;;62.85;27.27;;;1.70;99.90;;;;;;5038040;28;20584;-58
2022/12/02 00:37:57;;;;;;;64.43;26.02;;;1.70;99.90;;;;;;5037614;28;20206;-57
2022/12/02 00:40:24;;;;;;;63.88;27.20;;;1.70;99.90;;;;;;5039310;28;20210;-58
2022/12/02 00:42:51;;;;;;;64.05;24.70;;;1.70;99.90;;;;;;5039906;28;20576;-58
2022/12/02 00:48:02;;;;;;;73.43;27.77;;;1.70;99.90;;;;;;5039494;28;20189;-58
2022/12/02 00:50:30;;;;;;;59.45;24.25;;;1.70;99.90;;;;;;5038923;28;20206;-58
2022/12/02 00:52:57;;;;;;;62.95;26.02;;;1.60;99.90;;;;;;5038860;28;20301;-59
2022/12/02 00:55:23;;;;;;;59.60;26.17;;;1.70;99.90;;;;;;5038657;28;20229;-57
2022/12/02 00:57:50;;;;;;;68.20;28.10;;;1.60;99.90;;;;;;5039871;28;20202;-58
2022/12/02 01:00:17;;;;;;;79.55;31.42;;;1.60;99.90;;;;;;5037974;28;20202;-59
2022/12/02 01:02:44;;;;;;;67.28;28.27;;;1.60;99.90;;;;;;5038920;28;20206;-58
2022/12/02 01:05:11;;;;;;;64.85;26.67;;;1.60;99.90;;;;;;5038891;28;20226;-58
2022/12/02 01:07:39;;;;;;;69.18;26.83;;;1.50;99.90;;;;;;5038981;28;20701;-58
2022/12/02 01:10:07;;;;;;;60.53;26.67;;;1.50;99.90;;;;;;5038395;28;20202;-58
2022/12/02 01:12:34;;;;;;;63.63;25.70;;;1.50;99.90;;;;;;5037416;28;20624;-58
2022/12/02 01:15:01;;;;;;;61.75;26.80;;;1.50;99.90;;;;;;5037069;28;20222;-58
2022/12/02 01:17:28;;;;;;;56.88;24.23;;;1.50;99.90;;;;;;5037216;28;20777;-59
2022/12/02 01:19:55;;;;;;;69.75;28.17;;;1.50;99.90;;;;;;5038279;28;20720;-58
2022/12/02 01:22:21;;;;;;;65.30;26.48;;;1.50;99.90;;;;;;5037760;28;20209;-58
2022/12/02 01:24:50;;;;;;;64.25;25.38;;;1.50;99.90;;;;;;5037057;28;20225;-58
2022/12/02 01:27:17;;;;;;;60.58;24.55;;;1.50;99.90;;;;;;5037505;28;20208;-58
2022/12/02 01:29:44;;;;;;;66.10;27.90;;;1.50;99.90;;;;;;5036567;28;20565;-58
2022/12/02 01:32:11;;;;;;;58.63;25.02;;;1.50;99.90;;;;;;5036546;28;20644;-59
2022/12/02 01:34:37;;;;;;;61.50;25.05;;;1.40;99.90;;;;;;5036769;28;20227;-59
2022/12/02 01:37:04;;;;;;;61.63;25.38;;;1.40;99.90;;;;;;5036027;28;20207;-58
2022/12/02 01:39:31;;;;;;;58.65;22.27;;;1.40;99.90;;;;;;5036552;28;20202;-58
2022/12/02 01:41:59;;;;;;;64.78;26.33;;;1.40;99.90;;;;;;5036263;28;20576;-59
2022/12/02 01:44:26;;;;;;;60.20;26.23;;;1.40;99.90;;;;;;5036422;28;20259;-59
2022/12/02 01:46:53;;;;;;;62.72;24.83;;;1.50;99.90;;;;;;5036334;28;20202;-59
2022/12/02 01:49:20;;;;;;;58.50;22.98;;;1.50;99.90;;;;;;5036153;28;20210;-59
2022/12/02 01:51:47;;;;;;;47.55;22.98;;;1.50;99.90;;;;;;5036159;28;20199;-58
2022/12/02 01:54:14;;;;;;;61.25;25.05;;;1.40;99.90;;;;;;5036009;28;20233;-58
2022/12/02 01:56:41;;;;;;;63.90;24.60;;;1.40;99.90;;;;;;5035376;28;20221;-58
2022/12/02 01:59:12;;;;;;;58.28;27.95;;;1.40;99.90;;;;;;5035626;28;20682;-58
2022/12/02 02:01:40;;;;;;;61.95;27.42;;;1.40;99.90;;;;;;5036071;28;20198;-59
2022/12/02 02:04:07;;;;;;;61.83;25.77;;;1.30;99.90;;;;;;5035896;28;20230;-59
2022/12/02 02:06:37;;;;;;;70.85;30.50;;;1.30;99.90;;;;;;5035582;28;20691;-58
2022/12/02 02:09:06;;;;;;;64.93;28.58;;;1.30;99.90;;;;;;5036086;28;20191;-58
2022/12/02 02:11:33;;;;;;;67.53;27.08;;;1.30;99.90;;;;;;5047328;28;20202;-57
2022/12/02 02:14:00;;;;;;;58.55;26.98;;;1.30;99.90;;;;;;5038014;28;20230;-58
2022/12/02 02:16:28;;;;;;;72.60;28.52;;;1.20;99.90;;;;;;5035761;28;20654;-58
2022/12/02 02:18:55;;;;;;;66.75;26.42;;;1.30;99.90;;;;;;5036047;28;20199;-58
2022/12/02 02:21:26;;;;;;;63.92;27.73;;;1.30;99.90;;;;;;5036048;28;20203;-59
2022/12/02 02:23:54;;;;;;;60.47;25.98;;;1.30;99.90;;;;;;5035306;28;20310;-58
2022/12/02 02:26:21;;;;;;;65.63;26.48;;;1.30;99.90;;;;;;5035352;28;20209;-60
2022/12/02 02:28:47;;;;;;;62.28;27.50;;;1.30;99.90;;;;;;5035664;28;20273;-58
2022/12/02 02:31:14;;;;;;;62.97;29.00;;;1.30;99.90;;;;;;5035791;28;20210;-59
2022/12/02 02:33:41;;;;;;;63.95;28.35;;;1.30;99.90;;;;;;5035653;28;20223;-58
2022/12/02 02:36:09;;;;;;;62.38;28.52;;;1.30;99.90;;;;;;5035452;28;20227;-57
2022/12/02 02:38:36;;;;;;;78.25;28.55;;;1.30;99.90;;;;;;5035527;28;20206;-58
2022/12/02 02:41:05;;;;;;;65.75;28.02;;;1.30;99.90;;;;;;5035774;28;20209;-58
2022/12/02 02:43:32;;;;;;;78.88;31.83;;;1.30;99.90;;;;;;5035682;28;20222;-58
2022/12/02 02:46:00;;;;;;;80.22;31.63;;;1.30;99.90;;;;;;5035837;28;20569;-59
2022/12/02 02:48:27;;;;;;;64.68;27.17;;;1.30;99.90;;;;;;5035551;28;20210;-58
2022/12/02 02:50:55;;;;;;;73.53;30.13;;;1.30;99.90;;;;;;5034906;28;20567;-59
2022/12/02 02:53:25;;;;;;;77.22;30.58;;;1.30;99.90;;;;;;5035753;28;20225;-58
2022/12/02 02:55:52;;;;;;;71.43;28.23;;;1.30;99.90;;;;;;5036850;28;20222;-58
2022/12/02 02:58:23;;;;;;;69.38;28.70;;;1.30;99.90;;;;;;5036834;28;20206;-58
2022/12/02 03:00:53;;;;;;;76.57;31.08;;;1.30;99.90;;;;;;5035652;28;20187;-58
2022/12/02 03:03:22;;;;;;;72.50;29.80;;;1.30;99.90;;;;;;5035866;28;20223;-58
2022/12/02 03:05:51;;;;;;;74.55;29.98;;;1.30;99.90;;;;;;5036104;28;20214;-56
2022/12/02 03:08:19;;;;;;;77.38;28.23;;;1.30;99.90;;;;;;5035709;28;20198;-57
2022/12/02 03:10:45;;;;;;;65.30;30.45;;;1.30;99.90;;;;;;5036616;28;20202;-59
2022/12/02 03:13:12;;;;;;;68.53;27.88;;;1.20;99.90;;;;;;5036987;28;20234;-58
2022/12/02 03:15:41;;;;;;;69.55;28.48;;;1.20;99.90;;;;;;5036430;28;20238;-58
2022/12/02 03:18:08;;;;;;;71.05;30.02;;;1.20;99.90;;;;;;5035856;28;20550;-59
2022/12/02 03:20:35;;;;;;;65.45;27.40;;;1.20;99.90;;;;;;5036024;28;20277;-58
2022/12/02 03:23:02;;;;;;;76.75;31.70;;;1.20;99.90;;;;;;5036548;28;20214;-58
2022/12/02 03:25:29;;;;;;;70.45;30.35;;;1.20;99.90;;;;;;5038678;28;20194;-59
2022/12/02 03:27:56;;;;;;;69.80;26.85;;;1.20;99.90;;;;;;5038918;28;20213;-58
2022/12/02 03:30:23;;;;;;;71.85;30.35;;;1.20;99.90;;;;;;5037752;28;20205;-58
2022/12/02 03:32:51;;;;;;;73.82;31.70;;;1.20;99.90;;;;;;5038014;28;20206;-59
2022/12/02 03:35:18;;;;;;;69.90;28.38;;;1.20;99.90;;;;;;5041046;28;20244;-59
2022/12/02 03:37:45;;;;;;;64.80;27.92;;;1.20;99.90;;;;;;5037486;28;20218;-58
2022/12/02 03:40:12;;;;;;;77.55;26.88;;;1.20;99.90;;;;;;5039863;28;20197;-58
2022/12/02 03:42:39;;;;;;;74.72;29.92;;;1.20;99.90;;;;;;5038041;28;20207;-58
2022/12/02 03:45:08;;;;;;;61.30;27.08;;;1.20;99.90;;;;;;5040196;28;20225;-58
2022/12/02 03:47:35;;;;;;;64.93;29.10;;;1.20;99.90;;;;;;5042146;28;20209;-59
2022/12/02 03:50:04;;;;;;;61.20;28.27;;;1.20;99.90;;;;;;5042873;28;20202;-59
2022/12/02 03:52:31;;;;;;;63.42;25.98;;;1.30;99.90;;;;;;5043974;28;20202;-58
2022/12/02 03:54:58;;;;;;;64.05;29.70;;;1.20;99.90;;;;;;5044257;28;20223;-57
2022/12/02 03:57:26;;;;;;;73.82;31.80;;;1.20;99.90;;;;;;5048083;28;20198;-58
2022/12/02 03:59:52;;;;;;;62.33;26.20;;;1.20;99.90;;;;;;5046115;28;20211;-58
2022/12/02 04:02:19;;;;;;;66.07;30.75;;;1.20;99.90;;;;;;5043197;28;20202;-58
2022/12/02 04:04:46;;;;;;;67.05;27.08;;;1.20;99.90;;;;;;5036610;28;20229;-58
2022/12/02 04:10:41;;;;;;;73.05;31.48;;;1.20;99.90;;;;;;5095521;27;20919;-58
2022/12/02 04:13:08;;;;;;;67.63;29.00;;;1.10;99.90;;;;;;5094450;28;20211;-57
2022/12/02 04:15:35;;;;;;;66.43;27.80;;;1.10;99.90;;;;;;5092684;28;20266;-58
2022/12/02 04:18:01;;;;;;;62.05;28.02;;;1.10;99.90;;;;;;5092337;28;20212;-57
2022/12/02 04:20:28;;;;;;;68.25;28.63;;;1.20;99.90;;;;;;5092005;28;20201;-57
2022/12/02 04:22:55;;;;;;;72.93;28.60;;;1.20;99.90;;;;;;5092893;28;20219;-59
2022/12/02 04:25:22;;;;;;;67.20;28.88;;;1.20;99.90;;;;;;5091599;28;20211;-59
2022/12/02 04:27:50;;;;;;;67.85;26.92;;;1.20;99.90;;;;;;5091627;28;20211;-58
2022/12/02 04:30:17;;;;;;;66.03;26.67;;;1.20;99.90;;;;;;5091129;28;20220;-58
2022/12/02 04:32:43;;;;;;;67.38;27.67;;;1.20;99.90;;;;;;5090828;28;20203;-58
2022/12/02 04:35:10;;;;;;;66.53;27.65;;;1.20;99.90;;;;;;5090730;28;20246;-58
2022/12/02 04:37:37;;;;;;;69.88;29.42;;;1.30;99.90;;;;;;5090806;28;20201;-58
2022/12/02 04:40:05;;;;;;;66.80;31.80;;;1.30;99.90;;;;;;5090849;28;20192;-58
2022/12/02 04:42:31;;;;;;;68.90;27.13;;;1.30;99.90;;;;;;5090481;28;20204;-58
2022/12/02 04:44:59;;;;;;;65.38;27.10;;;1.20;99.90;;;;;;5091289;28;20225;-57
2022/12/02 04:47:26;;;;;;;60.83;27.83;;;1.20;99.90;;;;;;5093179;28;20200;-58
2022/12/02 04:49:53;;;;;;;70.68;28.60;;;1.20;99.90;;;;;;5090407;28;20224;-59
2022/12/02 04:52:19;;;;;;;69.40;27.95;;;1.20;99.90;;;;;;5098770;28;20203;-57
2022/12/02 04:54:46;;;;;;;64.93;28.02;;;1.30;99.90;;;;;;5093606;28;20223;-58
2022/12/02 04:57:13;;;;;;;61.28;27.15;;;1.20;99.90;;;;;;5092784;28;20208;-57
2022/12/02 04:59:40;;;;;;;80.50;29.52;;;1.20;99.90;;;;;;5093235;28;20196;-57
2022/12/02 05:02:08;;;;;;;77.80;30.40;;;1.30;99.90;;;;;;5093540;28;20200;-57
2022/12/02 05:04:35;;;;;;;67.43;30.23;;;1.20;99.90;;;;;;5092186;28;20224;-57
2022/12/02 05:07:02;;;;;;;75.55;30.20;;;1.20;99.90;;;;;;5090626;28;20656;-58
2022/12/02 05:09:28;;;;;;;66.82;28.38;;;1.20;99.90;;;;;;5092026;28;20227;-57
2022/12/02 05:11:55;;;;;;;59.50;28.50;;;1.20;99.90;;;;;;5093765;28;20201;-58
2022/12/02 05:14:22;;;;;;;66.97;28.20;;;1.20;99.90;;;;;;5094024;28;20224;-58
2022/12/02 05:16:49;;;;;;;69.50;30.42;;;1.20;99.90;;;;;;5092867;28;20207;-57
2022/12/02 05:19:17;;;;;;;69.78;28.98;;;1.20;99.90;;;;;;5091592;28;20680;-58
2022/12/02 05:21:43;;;;;;;63.42;28.92;;;1.20;99.90;;;;;;5080103;28;20197;-58
2022/12/02 05:24:11;;;;;;;69.03;31.80;;;1.30;99.90;;;;;;5076814;28;20237;-58
2022/12/02 05:26:37;;;;;;;66.53;29.83;;;1.20;99.90;;;;;;5076530;28;20205;-59
2022/12/02 05:29:05;;;;;;;62.15;28.58;;;1.20;99.90;;;;;;5076684;28;20225;-59
2022/12/02 05:31:32;;;;;;;72.18;31.80;;;1.20;99.90;;;;;;5077129;28;20263;-59
2022/12/02 05:33:59;;;;;;;57.83;29.83;;;1.20;99.90;;;;;;5082257;28;20228;-57
2022/12/02 05:36:27;;;;;;;62.80;30.23;;;1.20;99.90;;;;;;5080990;28;20204;-58
2022/12/02 05:38:54;;;;;;;62.25;29.20;;;1.20;99.90;;;;;;5079080;28;20307;-59
2022/12/02 05:41:20;;;;;;;64.03;29.20;;;1.20;99.90;;;;;;5078924;28;20212;-58
2022/12/02 05:43:47;;;;;;;67.32;30.27;;;1.20;99.90;;;;;;5082154;28;20231;-58
2022/12/02 05:46:19;;;;;;;64.15;29.15;;;1.20;99.90;;;;;;5083519;28;20247;-58
2022/12/02 05:48:47;;;;;;;72.43;29.77;;;1.20;99.90;;;;;;5082181;28;20189;-58
2022/12/02 05:51:16;;;;;;;62.58;27.60;;;1.20;99.90;;;;;;5081329;28;20223;-59
2022/12/02 05:53:46;;;;;;;60.53;28.25;;;1.30;99.90;;;;;;5080064;28;20220;-59
2022/12/02 05:56:18;;;;;;;66.13;28.80;;;1.30;99.90;;;;;;5079907;28;20287;-58
2022/12/02 05:58:45;;;;;;;61.47;27.30;;;1.30;99.90;;;;;;5079951;28;20189;-58
2022/12/02 06:01:20;;;;;;;63.30;27.85;;;1.30;99.90;;;;;;5080520;28;20216;-58
2022/12/02 06:03:48;;;;;;;60.42;28.13;;;1.30;99.90;;;;;;5080244;28;20227;-59
2022/12/02 06:06:15;;;;;;;60.80;27.20;;;1.30;99.90;;;;;;5079506;28;20212;-58
2022/12/02 06:08:42;;;;;;;57.42;28.48;;;1.30;99.90;;;;;;5080191;28;20209;-58
2022/12/02 06:11:24;;;;;;;53.63;27.98;;;1.30;99.90;;;;;;5082502;28;20700;-57
2022/12/02 06:13:52;;;;;;;61.30;28.20;;;1.30;99.90;;;;;;5078835;28;20225;-57
2022/12/02 06:16:23;;;;;;;56.83;28.75;;;1.30;99.90;;;;;;5081998;28;20260;-58
2022/12/02 06:18:50;;;;;;;55.97;25.75;;;1.30;99.90;;;;;;5079755;28;20190;-58
2022/12/02 06:21:20;;;;;;;60.10;29.48;;;1.30;99.90;;;;;;5078674;28;20579;-58
2022/12/02 06:23:49;;;;;;;55.20;27.05;;;1.30;99.90;;;;;;5077862;28;20225;-57
2022/12/02 06:26:18;;;;;;;49.90;26.08;;;1.30;99.90;;;;;;5077601;28;20574;-58
2022/12/02 06:28:48;;;;;;;62.15;28.05;;;1.30;99.90;;;;;;5077917;28;20205;-57
2022/12/02 06:31:18;;;;;;;75.05;30.05;;;1.30;99.90;;;;;;5077647;28;20232;-58
2022/12/02 06:33:47;;;;;;;63.17;29.02;;;1.30;99.90;;;;;;5076221;28;20228;-58
2022/12/02 06:36:18;;;;;;;60.58;28.38;;;1.30;99.90;;;;;;5076143;28;20201;-58
2022/12/02 06:38:48;;;;;;;67.38;29.00;;;1.30;99.90;;;;;;5076286;28;20641;-58
2022/12/02 06:41:19;;;;;;;53.53;27.55;;;1.40;99.90;;;;;;5076031;28;20239;-57
2022/12/02 06:45:03;;;;;;;67.55;28.65;;;1.30;99.90;;;;;;5077412;28;20224;-60
2022/12/02 06:46:34;;;;;;;62.47;27.08;;;1.30;99.90;;;;;;5075173;28;20746;-58
2022/12/02 06:49:08;;;;;;;66.22;29.65;;;1.30;99.90;;;;;;5075494;28;20205;-58
2022/12/02 06:51:35;;;;;;;61.63;27.63;;;1.30;99.90;;;;;;5075454;28;20185;-58
2022/12/02 06:54:04;;;;;;;60.85;29.15;;;1.30;99.90;;;;;;5074937;28;20220;-59
2022/12/02 06:56:33;;;;;;;65.82;28.00;;;1.30;99.90;;;;;;5075018;28;20212;-59
2022/12/02 06:59:01;;;;;;;51.97;26.73;;;1.30;99.90;;;;;;5075164;28;20209;-57
2022/12/02 07:01:33;;;;;;;58.90;27.15;;;1.30;99.90;;;;;;5075067;28;20209;-58
2022/12/02 07:04:14;;;;;;;72.30;30.70;;;1.30;99.90;;;;;;5074065;28;20712;-59
2022/12/02 07:06:42;;;;;;;57.83;26.95;;;1.30;99.90;;;;;;5077400;28;20188;-57
2022/12/02 07:09:22;;;;;;;55.00;25.63;;;1.30;99.90;;;;;;5085200;28;20217;-58
2022/12/02 07:11:53;;;;;;;54.05;25.90;;;1.30;99.90;;;;;;5083069;28;20275;-58
2022/12/02 07:14:28;;;;;;;53.05;26.75;;;1.30;99.90;;;;;;5084784;28;20220;-57
2022/12/02 07:16:56;;;;;;;60.70;27.75;;;1.30;99.90;;;;;;5085627;28;20199;-58
2022/12/02 07:19:27;;;;;;;57.13;25.33;;;1.40;99.90;;;;;;5085612;28;20671;-58
2022/12/02 07:21:54;;;;;;;54.92;26.95;;;1.30;99.90;;;;;;5076114;28;20193;-58
2022/12/02 07:24:22;;;;;;;55.58;26.88;;;1.40;99.90;;;;;;5075392;28;20223;-59
2022/12/02 07:26:51;;;;;;;67.00;28.02;;;1.40;99.90;;;;;;5075246;28;20201;-57
2022/12/02 07:29:27;;;;;;;57.35;26.67;;;1.40;99.90;;;;;;5075385;28;20221;-58
2022/12/02 07:31:54;;;;;;;53.10;26.40;;;1.40;99.90;;;;;;5075578;28;20192;-57
2022/12/02 07:34:21;;;;;;;55.30;25.48;;;1.40;99.90;;;;;;5075767;28;20251;-58
2022/12/02 07:36:48;;;;;;;61.95;28.20;;;1.40;99.90;;;;;;5080787;28;20293;-58
2022/12/02 07:39:14;;;;;;;52.10;26.88;;;1.40;99.90;;;;;;5080407;28;20201;-57
2022/12/02 07:41:42;;;;;;;54.03;25.95;;;1.40;99.90;;;;;;5072589;28;20213;-57
2022/12/02 07:44:10;;;;;;;48.13;25.48;;;1.40;99.90;;;;;;5059933;28;20229;-58
2022/12/02 07:46:36;;;;;;;53.88;25.67;;;1.40;99.90;;;;;;5062702;28;20660;-57
2022/12/02 07:49:03;;;;;;;50.42;25.77;;;1.40;99.90;;;;;;5074287;28;20203;-58
2022/12/02 07:51:30;;;;;;;52.90;28.05;;;1.40;99.90;;;;;;5074713;28;20217;-58
2022/12/02 07:53:57;;;;;;;58.63;26.27;;;1.40;99.90;;;;;;5072528;28;20231;-57
2022/12/02 07:56:23;;;;;;;52.63;24.17;;;1.50;99.90;;;;;;5055520;28;20201;-58
2022/12/02 07:58:50;;;;;;;45.40;25.63;;;1.50;99.90;;;;;;5054466;28;20197;-57
2022/12/02 08:01:18;;;;;;;47.40;22.98;;;1.50;99.90;;;;;;5054293;28;20542;-55
2022/12/02 08:03:45;;;;;;;47.75;25.38;;;1.50;99.90;;;;;;5055786;28;20218;-57
2022/12/02 08:06:12;;;;;;;47.92;23.25;;;1.50;99.90;;;;;;5068130;28;20541;-58
2022/12/02 08:08:38;;;;;;;41.35;22.80;;;1.50;99.90;;;;;;5064887;28;20215;-58
2022/12/02 08:11:05;;;;;;;40.25;22.08;;;1.50;99.90;;;;;;5076230;28;20220;-58
2022/12/02 08:13:32;;;;;;;41.95;23.15;;;1.50;99.90;;;;;;5059213;28;20236;-59
2022/12/02 08:15:59;;;;;;;41.17;21.55;;;1.60;99.90;;;;;;5059571;28;20212;-58
2022/12/02 08:18:27;;;;;;;42.63;22.88;;;1.60;99.90;;;;;;5054070;28;20201;-60
2022/12/02 08:20:53;;;;;;;45.65;24.23;;;1.60;99.90;;;;;;5054253;28;20205;-59
2022/12/02 08:23:20;;;;;;;43.67;22.38;;;1.60;99.90;;;;;;5053833;28;20222;-58
2022/12/02 08:25:47;;;;;;;41.13;22.75;;;1.60;99.90;;;;;;5054028;28;20205;-59
2022/12/02 08:28:14;;;;;;;40.60;23.20;;;1.50;99.90;;;;;;5054538;28;20213;-59
2022/12/02 08:30:41;;;;;;;44.72;23.98;;;1.50;99.90;;;;;;5054530;28;20218;-58
2022/12/02 08:33:08;;;;;;;45.85;24.17;;;1.50;99.90;;;;;;5054366;28;20359;-59
2022/12/02 08:35:38;;;;;;;47.15;23.17;;;1.60;99.90;;;;;;5054526;28;20212;-57
2022/12/02 08:38:05;;;;;;;53.00;26.38;;;1.60;99.90;;;;;;5055252;28;20197;-59
2022/12/02 08:40:33;;;;;;;44.00;23.98;;;1.60;99.90;;;;;;5054231;28;20567;-58
2022/12/02 08:43:00;;;;;;;47.55;25.02;;;1.70;99.90;;;;;;5054812;28;20209;-58
2022/12/02 08:45:28;;;;;;;41.00;22.02;;;1.70;99.90;;;;;;5054021;28;20206;-58
2022/12/02 08:47:54;;;;;;;43.53;21.77;;;1.70;99.90;;;;;;5054285;28;20198;-58
2022/12/02 08:50:21;;;;;;;42.03;23.75;;;1.70;99.90;;;;;;5053722;28;20642;-58
2022/12/02 08:52:50;;;;;;;47.20;23.85;;;1.70;99.90;;;;;;5054069;28;20637;-59
2022/12/02 08:55:16;;;;;;;49.22;25.48;;;1.70;99.90;;;;;;5054291;28;20210;-58
2022/12/02 08:57:43;;;;;;;46.38;24.52;;;1.70;99.90;;;;;;5057859;28;20228;-58
2022/12/02 09:00:11;;;;;;;45.25;23.70;;;1.70;99.90;;;;;;5057987;28;20222;-59
2022/12/02 09:02:38;;;;;;;42.80;23.17;;;1.70;99.90;;;;;;5058623;28;20658;-58
2022/12/02 09:05:05;;;;;;;45.65;25.33;;;1.70;99.90;;;;;;5058075;28;20312;-57
2022/12/02 09:07:32;;;;;;;49.45;23.88;;;1.80;99.90;;;;;;5058359;28;20205;-58
2022/12/02 09:10:00;;;;;;;48.20;25.15;;;1.80;99.90;;;;;;5057430;28;20748;-57
2022/12/02 09:12:27;;;;;;;44.80;23.20;;;1.80;99.90;;;;;;5057315;28;20578;-58
2022/12/02 09:14:54;;;;;;;47.47;24.65;;;1.70;99.90;;;;;;5057874;28;20229;-58
2022/12/02 09:17:21;;;;;;;49.97;24.58;;;1.70;99.90;;;;;;5057396;28;20202;-58
2022/12/02 09:19:47;;;;;;;45.83;24.48;;;1.70;99.90;;;;;;5057572;28;20209;-58
2022/12/02 09:22:14;;;;;;;49.45;25.02;;;1.70;99.90;;;;;;5057608;28;20206;-60
2022/12/02 09:24:41;;;;;;;44.17;23.40;;;1.70;99.90;;;;;;5057148;28;20225;-58
2022/12/02 09:27:09;;;;;;;42.58;24.17;;;1.70;99.90;;;;;;5057593;28;20520;-58
2022/12/02 09:29:36;;;;;;;50.17;24.67;;;1.70;99.90;;;;;;5057986;28;20224;-58
2022/12/02 09:32:02;;;;;;;47.15;24.10;;;1.80;99.90;;;;;;5057207;28;20222;-58
2022/12/02 09:34:29;;;;;;;49.10;26.73;;;1.80;99.90;;;;;;5057995;28;20226;-58
2022/12/02 09:36:56;;;;;;;44.15;24.13;;;1.80;99.90;;;;;;5058926;28;20206;-58
2022/12/02 09:39:23;;;;;;;49.83;26.48;;;1.90;99.90;;;;;;5058208;28;20228;-58
2022/12/02 09:41:50;;;;;;;47.72;25.92;;;1.90;99.90;;;;;;5058436;28;20198;-58
2022/12/02 09:44:18;;;;;;;42.95;24.48;;;1.90;99.90;;;;;;5060906;28;20217;-58
2022/12/02 09:46:46;;;;;;;45.63;23.92;;;1.90;99.90;;;;;;5061123;28;20229;-58
2022/12/02 09:49:12;;;;;;;46.60;24.05;;;1.90;99.90;;;;;;5057770;28;20217;-58
2022/12/02 09:51:39;;;;;;;44.63;23.25;;;1.90;99.90;;;;;;5057196;28;20217;-58
2022/12/02 09:54:06;;;;;;;39.88;20.92;;;1.90;99.90;;;;;;5056497;28;20234;-59
2022/12/02 09:56:34;;;;;;;42.92;24.50;;;1.90;99.90;;;;;;5056912;28;20209;-59
2022/12/02 09:59:00;;;;;;;45.67;24.17;;;1.90;99.90;;;;;;5058119;28;20224;-58
2022/12/02 10:01:29;;;;;;;39.60;21.50;;;1.90;99.90;;;;;;5055720;28;20202;-58
2022/12/02 10:03:55;;;;;;;43.20;24.20;;;2.00;99.90;;;;;;5055975;28;20650;-58
2022/12/02 10:06:25;;;;;;;40.88;22.67;;;2.00;99.90;;;;;;5056637;28;20683;-58
2022/12/02 10:08:53;;;;;;;47.40;23.90;;;2.00;99.90;;;;;;5056369;28;20220;-59
2022/12/02 10:11:23;;;;;;;44.13;21.17;;;2.00;99.90;;;;;;5066054;28;20206;-58
2022/12/02 10:13:51;;;;;;;41.78;22.05;;;2.10;99.90;;;;;;5063138;28;20232;-58
2022/12/02 10:16:17;;;;;;;45.25;21.90;;;2.10;99.90;;;;;;5061472;28;20205;-57
2022/12/02 10:18:46;;;;;;;45.30;24.00;;;2.00;99.90;;;;;;5061213;28;20206;-59
2022/12/02 10:21:13;;;;;;;42.53;22.38;;;2.00;99.90;;;;;;5060486;28;20200;-58
2022/12/02 10:26:15;;;;;;;39.28;22.20;;;2.00;99.90;;;;;;5033458;28;20214;-57
2022/12/02 10:29:00;;;;;;;38.50;21.35;;;2.00;99.90;;;;;;5036396;28;20671;-60
2022/12/02 10:31:26;;;;;;;43.88;21.45;;;2.00;99.90;;;;;;5036535;28;20725;-61
2022/12/02 10:33:57;;;;;;;39.90;21.83;;;2.00;99.90;;;;;;5036413;28;20218;-59
2022/12/02 10:36:32;;;;;;;39.42;21.98;;;2.10;99.90;;;;;;5036924;28;20190;-60
2022/12/02 10:39:18;;;;;;;37.63;21.05;;;2.00;99.90;;;;;;5037493;28;20201;-58
2022/12/02 10:41:45;;;;;;;41.20;20.35;;;2.00;99.90;;;;;;5037897;28;20186;-59
2022/12/02 10:44:17;;;;;;;39.90;22.13;;;2.00;99.90;;;;;;5037276;28;20242;-59
2022/12/02 10:46:44;;;;;;;40.75;21.70;;;1.90;99.90;;;;;;5037288;28;20201;-59
2022/12/02 10:49:25;;;;;;;43.10;23.30;;;1.90;99.90;;;;;;5036190;28;20214;-58
2022/12/02 10:51:53;;;;;;;42.25;22.67;;;1.90;99.90;;;;;;5035881;28;20210;-59
2022/12/02 10:54:24;;;;;;;46.63;24.23;;;2.00;99.90;;;;;;5035390;28;20224;-59
2022/12/02 10:56:51;;;;;;;43.45;22.83;;;2.00;99.90;;;;;;5036713;28;20190;-59
2022/12/02 10:59:17;;;;;;;42.90;23.90;;;2.00;99.90;;;;;;5036372;28;20592;-58
2022/12/02 11:01:45;;;;;;;37.42;22.88;;;2.00;99.90;;;;;;5035994;28;20235;-58
2022/12/02 11:04:13;;;;;;;41.67;22.50;;;2.10;99.90;;;;;;5035702;28;20230;-58
2022/12/02 11:06:42;;;;;;;40.05;22.05;;;2.10;99.90;;;;;;5034775;28;20212;-59
2022/12/02 11:09:15;;;;;;;37.65;21.15;;;2.10;99.90;;;;;;5034368;28;20205;-59
2022/12/02 11:11:42;;;;;;;39.80;21.30;;;2.10;99.90;;;;;;5034676;28;20288;-59
2022/12/02 11:14:12;;;;;;;34.35;21.13;;;2.10;99.90;;;;;;5034645;28;20253;-59
2022/12/02 11:17:04;;;;;;;44.80;24.02;;;2.10;99.90;;;;;;5034679;28;20202;-59
2022/12/02 11:19:45;;;;;;;36.25;21.90;;;2.10;99.90;;;;;;5034694;28;20210;-59
2022/12/02 11:22:49;;;;;;;39.00;22.60;;;2.10;99.90;;;;;;5035088;28;20183;-59
2022/12/02 11:25:49;;;;;;;34.45;21.90;;;2.10;99.90;;;;;;5034485;28;20238;-58
2022/12/02 11:31:25;;;;;;;39.65;22.00;;;2.10;99.90;;;;;;5091868;28;20509;-60
2022/12/02 11:34:24;;;;;;;38.50;21.98;;;2.10;99.90;;;;;;5090256;28;20200;-60
2022/12/02 11:37:24;;;;;;;35.20;21.15;;;2.10;99.90;;;;;;5092087;28;20185;-60
2022/12/02 11:39:51;;;;;;;30.88;18.13;;;2.20;99.90;;;;;;5091927;28;20195;-60
2022/12/02 11:42:23;;;;;;;36.15;19.60;;;2.20;99.90;;;;;;5093061;28;20200;-60
2022/12/02 11:44:50;;;;;;;30.75;18.08;;;2.20;99.90;;;;;;5093314;28;20223;-59
2022/12/02 11:47:29;;;;;;;30.70;17.80;;;2.20;99.90;;;;;;5092530;28;20226;-60
2022/12/02 11:50:11;;;;;;;34.78;21.55;;;2.20;99.90;;;;;;5093350;28;20576;-60
2022/12/02 11:52:40;;;;;;;28.52;16.75;;;2.20;99.90;;;;;;5092098;28;20189;-58
2022/12/02 11:55:16;;;;;;;37.53;20.33;;;2.20;99.90;;;;;;5092977;28;20216;-60
2022/12/02 11:57:47;;;;;;;38.67;20.23;;;2.20;99.90;;;;;;5092454;28;20185;-59
2022/12/02 12:00:22;;;;;;;31.35;19.67;;;2.20;99.90;;;;;;5094288;28;20230;-60
2022/12/02 12:03:04;;;;;;;31.00;19.27;;;2.20;99.90;;;;;;5092873;28;20195;-60
2022/12/02 12:05:31;;;;;;;30.40;18.30;;;2.20;99.90;;;;;;5093178;28;20220;-61
2022/12/02 12:07:58;;;;;;;34.90;19.02;;;2.20;99.90;;;;;;5092963;28;20226;-60
2022/12/02 12:10:30;;;;;;;29.60;18.55;;;2.10;99.90;;;;;;5091363;28;20223;-60
2022/12/02 12:13:21;;;;;;;30.50;17.92;;;2.10;99.90;;;;;;5091000;28;20189;-60
2022/12/02 12:15:53;;;;;;;32.22;19.38;;;2.00;99.90;;;;;;5091569;28;20220;-60
2022/12/02 12:18:44;;;;;;;31.73;19.63;;;2.00;99.90;;;;;;5092445;28;20185;-60
2022/12/02 12:21:11;;;;;;;32.22;19.70;;;2.00;99.90;;;;;;5091678;28;20225;-59
2022/12/02 12:23:40;;;;;;;31.25;19.58;;;2.00;99.90;;;;;;5091857;28;20238;-60
2022/12/02 12:26:09;;;;;;;28.65;17.90;;;2.10;99.90;;;;;;5090833;28;20197;-60
2022/12/02 12:28:37;;;;;;;27.80;15.88;;;2.10;99.90;;;;;;5089964;28;20207;-60
2022/12/02 12:31:05;;;;;;;32.67;19.95;;;2.10;99.90;;;;;;5089502;28;20227;-59
2022/12/02 12:33:32;;;;;;;30.58;18.38;;;2.10;99.90;;;;;;5090136;28;20212;-60
2022/12/02 12:36:02;;;;;;;30.40;18.38;;;2.10;99.90;;;;;;5089763;28;20220;-60
2022/12/02 12:38:30;;;;;;;25.70;16.65;;;2.10;99.90;;;;;;5090313;28;20200;-61
2022/12/02 12:40:58;;;;;;;34.03;19.17;;;2.10;99.90;;;;;;5087017;28;20197;-59
2022/12/02 12:43:25;;;;;;;27.25;18.05;;;2.10;99.90;;;;;;5078994;28;20295;-59
2022/12/02 12:45:51;;;;;;;27.92;17.95;;;2.10;99.90;;;;;;5079749;28;20221;-58
2022/12/02 12:48:18;;;;;;;28.70;18.02;;;2.10;99.90;;;;;;5079862;28;20312;-58
2022/12/02 12:50:45;;;;;;;26.95;17.05;;;2.00;99.90;;;;;;5077973;28;20235;-59
2022/12/02 12:53:13;;;;;;;30.98;18.85;;;2.00;99.90;;;;;;5077603;28;20296;-58
2022/12/02 12:55:40;;;;;;;32.00;19.25;;;2.00;99.90;;;;;;5079614;28;20231;-59